Latest Weather Observations for Georgetown Airport

IDQ60801

Issued at 11:32 am EST Wednesday 28 September 2016 (issued every 30 minutes, with the page automatically refreshed every 10 minutes)

About weather observations | Map of weather stations | Latest weather observations for QLD | Other Formats
Station Details ID: 030124 Name: GEORGETOWN AIRPORT Lat: -18.30 Lon: 143.53 Height: 301.77 m
Data from the previous 72 hours. | See also: Recent months at Georgetown Airport
Date/Time
EST
Temp
°C
App
Temp
°C
Dew
Point
°C
Rel
Hum
%
Delta-T
°C
Wind Press
QNH
hPa
Press
MSL
hPa
Rain since
9am
mm
Dir  Spd
km/h
Gust
km/h
Spd
kts
Gust
kts
28/11:30am 33.7 30.6 11.5 26 13.2 N 19 26 10 14 1012.0 - 0.0
28/11:00am 33.1 30.4 11.6 27 12.8 NE 17 28 9 15 1012.7 - 0.0
28/10:30am 32.3 28.4 10.9 27 12.6 NNE 22 33 12 18 1013.0 - 0.0
28/10:00am 31.9 29.1 13.2 32 11.3 NE 20 28 11 15 1013.5 - 0.0
28/09:30am 30.6 27.0 13.0 34 10.6 NNE 24 32 13 17 1013.8 - 0.0
28/09:00am 29.8 26.6 13.1 36 10.0 NE 22 30 12 16 1013.7 1012.1 0.0
28/08:30am 28.9 26.2 13.6 39 9.2 NE 20 30 11 16 1013.7 - 0.0
28/08:00am 27.5 25.6 15.8 48 7.3 NE 20 24 11 13 1013.5 - 0.0
28/07:30am 25.8 25.2 16.6 56 5.7 ENE 15 19 8 10 1013.3 - 0.0
28/07:00am 25.0 25.1 16.4 59 5.3 E 11 19 6 10 1013.1 - 0.0
28/06:30am 23.7 23.3 14.1 55 5.7 E 9 13 5 7 1012.8 - 0.0
28/06:00am 23.3 21.8 10.7 45 7.1 ENE 9 11 5 6 1012.6 1011.0 0.0
28/05:30am 23.9 21.3 9.5 40 7.9 NE 13 15 7 8 1012.5 - 0.0
28/05:00am 24.5 22.2 8.9 37 8.5 NNE 11 13 6 7 1012.3 - 0.0
28/04:30am 23.7 21.3 5.1 30 9.5 NE 7 9 4 5 1012.4 - 0.0
28/04:00am 25.1 22.2 4.8 27 10.4 E 9 15 5 8 1012.1 - 0.0
28/03:30am 25.7 22.2 3.6 24 11.1 E 11 15 6 8 1012.0 - 0.0
28/03:00am 26.4 22.8 3.0 22 11.7 E 11 20 6 11 1011.9 1010.3 0.0
28/02:30am 26.5 22.4 2.4 21 11.9 E 13 20 7 11 1011.9 - 0.0
28/02:00am 26.7 22.7 2.6 21 11.9 E 13 20 7 11 1012.2 - 0.0
28/01:30am 27.2 22.3 2.3 20 12.3 E 17 32 9 17 1012.5 - 0.0
28/01:00am 27.5 22.8 1.1 18 12.8 E 15 24 8 13 1012.7 - 0.0
28/12:30am 27.9 23.4 -0.2 16 13.4 E 13 20 7 11 1013.0 - 0.0
28/12:00am 29.0 24.0 -1.2 14 14.2 SE 15 24 8 13 1013.0 1011.4 0.0
 
Date/Time
EST
Temp
°C
App
Temp
°C
Dew
Point
°C
Rel
Hum
%
Delta-T
°C
Wind Press
QNH
hPa
Press
MSL
hPa
Rain since
9am
mm
Dir  Spd
km/h
Gust
km/h
Spd
kts
Gust
kts
27/11:30pm 29.4 23.5 -1.9 13 14.6 ESE 19 32 10 17 1013.0 - 0.0
27/11:00pm 29.6 24.0 -2.8 12 14.9 SE 17 22 9 12 1012.9 - 0.0
27/10:30pm 27.8 24.7 1.3 18 12.9 S 7 11 4 6 1012.7 - 0.0
27/10:00pm 29.0 25.5 1.5 17 13.6 S 9 15 5 8 1012.3 - 0.0
27/09:30pm 30.2 26.0 1.6 16 14.3 S 13 20 7 11 1012.3 - 0.0
27/09:00pm 30.4 28.3 1.8 16 14.3 SSE 2 15 1 8 1012.0 1010.4 0.0
27/08:30pm 31.2 26.9 3.3 17 14.4 SSW 15 26 8 14 1011.6 - 0.0
27/08:00pm 29.5 28.1 5.6 22 12.7 WSW 2 6 1 3 1011.2 - 0.0
27/07:30pm 31.2 28.7 4.9 19 13.9 WSW 7 7 4 4 1010.8 - 0.0
27/07:00pm 32.2 29.5 5.7 19 14.3 WSW 9 13 5 7 1010.5 - 0.0
27/06:30pm 33.5 31.1 5.1 17 15.3 WSW 7 11 4 6 1010.0 - 0.0
27/06:00pm 35.8 34.9 6.1 16 16.5 CALM 0 7 0 4 1009.7 1008.1 0.0
27/05:30pm 36.2 33.5 5.5 15 16.9 SSW 9 15 5 8 1009.5 - 0.0
27/05:00pm 36.1 33.0 5.4 15 16.8 SSW 11 17 6 9 1009.2 - 0.0
27/04:30pm 36.9 34.3 6.0 15 17.2 SSW 9 15 5 8 1009.1 - 0.0
27/04:00pm 36.8 34.5 4.9 14 17.4 E 6 11 3 6 1009.2 - 0.0
27/03:30pm 36.5 33.6 4.7 14 17.3 W 9 13 5 7 1009.5 - 0.0
27/03:00pm 36.3 34.0 5.5 15 17.0 SW 7 17 4 9 1009.9 1008.3 0.0
27/02:30pm 36.7 34.3 6.8 16 16.8 WNW 9 17 5 9 1010.1 - 0.0
27/02:00pm 35.8 32.3 7.0 17 16.2 S 15 24 8 13 1010.8 - 0.0
27/01:30pm 35.8 33.2 7.8 18 15.9 WSW 11 19 6 10 1011.4 - 0.0
27/01:00pm 34.9 32.7 7.9 19 15.3 NW 9 15 5 8 1012.0 - 0.0
27/12:30pm 34.9 32.3 7.9 19 15.3 ESE 11 19 6 10 1012.6 - 0.0
27/12:00pm 34.1 31.3 8.7 21 14.5 E 13 20 7 11 1013.1 1011.6 0.0
27/11:30am 33.8 31.3 9.8 23 13.9 NNE 13 24 7 13 1013.1 - 0.0
27/11:00am 32.6 29.6 9.4 24 13.3 E 15 30 8 16 1014.2 - 0.0
27/10:30am 32.2 28.4 9.1 24 13.2 NE 19 28 10 15 1014.3 - 0.0
27/10:00am 32.1 29.0 9.0 24 13.1 ESE 15 22 8 12 1014.9 - 0.0
27/09:30am 31.2 28.2 9.4 26 12.4 SE 15 26 8 14 1015.1 - 0.0
27/09:00am 31.3 28.3 7.7 23 13.1 ESE 13 19 7 10 1015.3 1013.7 0.0
27/08:30am 30.7 28.5 7.8 24 12.7 SE 9 15 5 8 1015.2 - 0.0
27/08:00am 28.7 28.1 8.9 29 11.1 SSE 2 7 1 4 1014.9 - 0.0
27/07:30am 27.1 25.3 10.7 35 9.4 NNE 11 15 6 8 1014.2 - 0.0
27/07:00am 24.0 22.6 8.8 38 8.3 N 6 7 3 4 1014.3 - 0.0
27/06:30am 23.2 22.7 7.7 37 8.2 CALM 0 0 0 0 1014.0 - 0.0
27/06:00am 23.5 21.5 7.2 35 8.6 SSE 7 9 4 5 1013.7 1012.1 0.0
27/05:30am 24.1 22.3 7.3 34 8.9 ESE 6 7 3 4 1013.5 - 0.0
27/05:00am 25.0 23.2 7.2 32 9.5 SE 6 11 3 6 1013.2 - 0.0
27/04:30am 23.6 21.4 6.4 33 9.0 SSE 7 11 4 6 1012.9 - 0.0
27/04:00am 23.0 20.7 5.9 33 8.8 S 7 11 4 6 1012.5 - 0.0
27/03:30am 23.4 20.4 6.2 33 8.9 S 11 15 6 8 1012.3 - 0.0
27/03:00am 23.3 21.1 6.1 33 8.9 S 7 11 4 6 1012.2 1010.6 0.0
27/02:30am 23.7 21.6 6.0 32 9.2 S 6 9 3 5 1012.5 - 0.0
27/02:00am 22.8 20.9 6.6 35 8.4 SE 6 9 3 5 1012.6 - 0.0
27/01:30am 22.2 19.8 5.2 33 8.6 E 7 9 4 5 1012.8 - 0.0
27/01:00am 24.4 22.3 5.7 30 9.7 E 6 7 3 4 1013.1 - 0.0
27/12:30am 25.4 22.7 5.6 28 10.3 E 9 13 5 7 1013.6 - 0.0
27/12:00am 24.4 22.1 5.7 30 9.7 ESE 7 19 4 10 1013.8 1012.1 0.0
 
Date/Time
EST
Temp
°C
App
Temp
°C
Dew
Point
°C
Rel
Hum
%
Delta-T
°C
Wind Press
QNH
hPa
Press
MSL
hPa
Rain since
9am
mm
Dir  Spd
km/h
Gust
km/h
Spd
kts
Gust
kts
26/11:30pm 25.7 23.3 5.3 27 10.5 S 7 9 4 5 1013.6 - 0.0
26/11:00pm 27.9 25.2 5.5 24 11.8 S 9 11 5 6 1013.5 - 0.0
26/10:30pm 28.5 25.4 5.4 23 12.2 S 11 13 6 7 1013.4 - 0.0
26/10:00pm 28.9 26.5 5.1 22 12.5 S 7 9 4 5 1013.3 - 0.0
26/09:30pm 30.3 27.1 4.9 20 13.4 S 11 15 6 8 1013.2 - 0.0
26/09:00pm 31.0 27.7 4.7 19 13.9 SSW 11 17 6 9 1013.0 1011.4 0.0
26/08:30pm 31.7 28.4 4.5 18 14.4 S 11 19 6 10 1012.7 - 0.0
26/08:00pm 32.2 28.6 4.9 18 14.6 SSW 13 19 7 10 1012.3 - 0.0
26/07:30pm 32.9 28.7 5.5 18 14.8 SSW 17 24 9 13 1011.7 - 0.0
26/07:00pm 33.1 30.0 5.6 18 14.9 SSW 11 17 6 9 1011.3 - 0.0
26/06:30pm 34.1 30.3 5.6 17 15.5 SSW 15 22 8 12 1010.7 - 0.0
26/06:00pm 35.4 32.1 6.6 17 16.1 SSW 13 22 7 12 1010.2 1008.6 0.0
26/05:30pm 36.2 33.7 6.4 16 16.6 S 9 13 5 7 1009.8 - 0.0
26/05:00pm 35.8 32.8 6.1 16 16.4 SSW 11 19 6 10 1009.7 - 0.0
26/04:30pm 37.4 34.5 6.4 15 17.4 S 11 20 6 11 1009.4 - 0.0
26/04:00pm 36.3 33.0 6.5 16 16.6 SSE 13 24 7 13 1009.5 - 0.0
26/03:30pm 36.4 34.1 7.4 17 16.4 S 9 15 5 8 1009.7 - 0.0
26/03:00pm 36.7 32.9 7.7 17 16.5 S 17 24 9 13 1009.8 1008.2 0.0
26/02:30pm 37.2 34.5 7.2 16 17.0 ESE 11 20 6 11 1010.1 - 0.0
26/02:00pm 37.9 35.5 8.6 17 17.0 SSE 11 22 6 12 1010.4 - 0.0
26/01:30pm 36.2 33.1 7.3 17 16.3 SSW 13 20 7 11 1010.7 - 0.0
26/01:00pm 35.9 32.8 8.7 19 15.7 SSE 15 30 8 16 1011.4 - 0.0
26/12:30pm 36.7 34.7 10.1 20 15.7 SE 11 17 6 9 1011.8 - 0.0
26/12:00pm 35.0 32.6 8.7 20 15.1 SE 11 20 6 11 1012.5 1011.0 0.0
26/11:30am 34.8 32.4 9.9 22 14.5 ESE 13 20 7 11 1013.2 - 0.0
26/11:00am 34.7 32.8 10.5 23 14.3 S 11 19 6 10 1013.7 - 0.0
26/10:30am 33.8 32.6 11.6 26 13.2 NNE 9 19 5 10 1014.0 - 0.0
26/10:00am 32.5 31.3 11.6 28 12.4 ENE 9 17 5 9 1014.3 - 0.0
26/09:30am 32.4 30.2 12.1 29 12.1 ENE 15 24 8 13 1014.7 - 0.0
26/09:00am 30.9 28.1 11.3 30 11.5 ENE 17 24 9 13 1014.9 1013.3 0.0
26/08:30am 29.8 27.4 11.3 32 10.8 ENE 15 22 8 12 1015.0 - 0.0
26/08:00am 28.8 26.8 11.4 34 10.1 ENE 13 20 7 11 1014.8 - 0.0
26/07:30am 27.9 25.6 10.6 34 9.9 ENE 13 20 7 11 1014.3 - 0.0
26/07:00am 26.7 23.7 10.8 37 9.1 E 17 24 9 13 1013.8 - 0.0
26/06:30am 24.5 23.5 10.4 41 7.9 E 6 11 3 6 1013.4 - 0.0
26/06:00am 22.6 20.6 10.1 45 6.9 NE 11 13 6 7 1012.9 1011.3 0.0
26/05:30am 21.5 20.1 9.7 47 6.4 N 7 9 4 5 1012.5 - 0.0
26/05:00am 22.6 21.4 9.7 44 7.1 E 6 9 3 5 1012.1 - 0.0
26/04:30am 22.2 20.7 9.0 43 7.1 E 7 9 4 5 1011.7 - 0.0
26/04:00am 23.2 21.6 10.3 44 7.2 ESE 9 13 5 7 1011.3 - 0.0
26/03:30am 22.1 20.8 9.3 44 7.0 SE 6 9 3 5 1011.3 - 0.0
26/03:00am 22.0 21.7 8.5 42 7.2 CALM 0 0 0 0 1011.4 1009.7 0.0
26/02:30am 23.3 21.7 8.6 39 7.9 S 7 9 4 5 1011.4 - 0.0
26/02:00am 23.0 21.5 8.3 39 7.9 S 6 7 3 4 1011.4 - 0.0
26/01:30am 23.4 21.7 8.3 38 8.1 S 7 7 4 4 1011.6 - 0.0
26/01:00am 23.8 22.2 7.8 36 8.6 S 6 7 3 4 1011.9 - 0.0
26/12:30am 24.8 23.2 7.9 34 9.1 ESE 6 7 3 4 1012.1 - 0.0
26/12:00am 26.6 25.0 8.1 31 10.1 S 6 9 3 5 1012.1 1010.5 0.0
 
Date/Time
EST
Temp
°C
App
Temp
°C
Dew
Point
°C
Rel
Hum
%
Delta-T
°C
Wind Press
QNH
hPa
Press
MSL
hPa
Rain since
9am
mm
Dir  Spd
km/h
Gust
km/h
Spd
kts
Gust
kts
25/11:30pm 27.5 25.7 7.9 29 10.7 S 7 11 4 6 1012.2 - 0.0
25/11:00pm 28.4 26.6 8.1 28 11.2 S 7 13 4 7 1012.3 - 0.0
25/10:30pm 29.5 27.0 8.0 26 11.9 SSW 11 17 6 9 1012.3 - 0.0
25/10:00pm 29.5 27.2 7.4 25 12.1 SSW 9 13 5 7 1012.2 - 0.0
25/09:30pm 30.0 27.1 6.6 23 12.7 SSW 11 17 6 9 1012.0 - 0.0
25/09:00pm 30.6 27.3 6.5 22 13.1 SSW 13 19 7 10 1011.6 1010.0 0.0
25/08:30pm 30.7 27.1 5.2 20 13.5 WSW 13 15 7 8 1011.3 - 0.0
25/08:00pm 31.5 27.9 5.1 19 14.1 WSW 13 17 7 9 1010.6 - 0.0
25/07:30pm 28.8 26.0 5.0 22 12.5 W 9 11 5 6 1010.1 - 0.0
25/07:00pm 31.2 28.7 4.9 19 13.9 W 7 9 4 5 1009.7 - 0.0
25/06:30pm 33.0 30.3 3.9 16 15.3 WSW 7 9 4 5 1009.2 - 0.0
25/06:00pm 35.2 31.7 3.7 14 16.8 SSW 11 15 6 8 1008.9 1007.2 0.0
25/05:30pm 36.0 32.1 3.3 13 17.3 WSW 13 20 7 11 1008.5 - 0.0
25/05:00pm 36.4 33.9 3.6 13 17.5 S 6 11 3 6 1008.4 - 0.0
25/04:30pm 36.5 32.1 2.5 12 17.9 SW 15 24 8 13 1008.3 - 0.0
25/04:00pm 36.8 31.5 2.8 12 18.0 W 20 28 11 15 1008.2 - 0.0
25/03:30pm 36.8 32.8 2.8 12 18.0 W 13 20 7 11 1008.3 - 0.0
25/03:00pm 36.3 33.2 3.5 13 17.5 SSW 9 15 5 8 1008.6 1007.0 0.0
25/02:30pm 36.5 31.9 3.7 13 17.6 W 17 24 9 13 1008.7 - 0.0
25/02:00pm 35.9 32.9 4.2 14 17.0 S 9 20 5 11 1009.1 - 0.0
25/01:30pm 35.4 32.5 4.8 15 16.6 S 9 19 5 10 1009.6 - 0.0
25/01:00pm 36.1 32.8 4.4 14 17.1 WNW 11 20 6 11 1010.2 - 0.0
25/12:30pm 34.8 31.6 5.3 16 16.0 NW 11 17 6 9 1010.8 - 0.0
25/12:00pm 33.6 30.6 6.0 18 15.1 NE 11 19 6 10 1011.4 1009.7 0.0

Other Formats:

Comma delimited format used in spreadsheet applications
http://www.bom.gov.au/fwo/IDQ60801/IDQ60801.94274.axf

JavaScript Object Notation format (JSON) in row-major order
http://www.bom.gov.au/fwo/IDQ60801/IDQ60801.94274.json